sensor_id;sensor_type;location;lat;lon;timestamp;pressure;altitude;pressure_sealevel;temperature;humidity
52693;BME280;68218;51.012;-1.648;2023-09-18T00:01:57;99242.41;;;16.10;100.00
52693;BME280;68218;51.012;-1.648;2023-09-18T00:04:22;99206.09;;;16.15;100.00
52693;BME280;68218;51.012;-1.648;2023-09-18T00:06:47;99176.00;;;16.20;100.00
52693;BME280;68218;51.012;-1.648;2023-09-18T00:09:13;99188.16;;;16.23;100.00
52693;BME280;68218;51.012;-1.648;2023-09-18T00:11:39;99249.25;;;16.34;100.00
52693;BME280;68218;51.012;-1.648;2023-09-18T00:14:04;99267.47;;;16.42;100.00
52693;BME280;68218;51.012;-1.648;2023-09-18T00:16:30;99263.94;;;16.42;100.00
52693;BME280;68218;51.012;-1.648;2023-09-18T00:18:55;99257.88;;;16.36;100.00
52693;BME280;68218;51.012;-1.648;2023-09-18T00:21:21;99241.69;;;16.40;100.00
52693;BME280;68218;51.012;-1.648;2023-09-18T00:23:46;99237.19;;;16.44;100.00
52693;BME280;68218;51.012;-1.648;2023-09-18T00:26:12;99242.19;;;16.42;100.00
52693;BME280;68218;51.012;-1.648;2023-09-18T00:28:37;99239.13;;;16.35;100.00
52693;BME280;68218;51.012;-1.648;2023-09-18T00:31:02;99248.97;;;16.18;100.00
52693;BME280;68218;51.012;-1.648;2023-09-18T00:33:28;99246.44;;;16.04;100.00
52693;BME280;68218;51.012;-1.648;2023-09-18T00:35:53;99239.41;;;16.03;100.00
52693;BME280;68218;51.012;-1.648;2023-09-18T00:38:19;99237.50;;;15.95;100.00
52693;BME280;68218;51.012;-1.648;2023-09-18T00:40:45;99234.44;;;15.97;100.00
52693;BME280;68218;51.012;-1.648;2023-09-18T00:43:10;99225.06;;;15.85;100.00
52693;BME280;68218;51.012;-1.648;2023-09-18T00:45:44;99214.75;;;16.08;100.00
52693;BME280;68218;51.012;-1.648;2023-09-18T00:48:11;99209.81;;;15.93;100.00
52693;BME280;68218;51.012;-1.648;2023-09-18T00:50:37;99219.44;;;15.73;100.00
52693;BME280;68218;51.012;-1.648;2023-09-18T00:53:03;99219.59;;;15.59;100.00
52693;BME280;68218;51.012;-1.648;2023-09-18T00:55:30;99231.16;;;15.47;100.00
52693;BME280;68218;51.012;-1.648;2023-09-18T00:57:56;99240.22;;;15.69;100.00
52693;BME280;68218;51.012;-1.648;2023-09-18T01:00:22;99250.78;;;15.70;100.00
52693;BME280;68218;51.012;-1.648;2023-09-18T01:02:47;99263.59;;;15.70;100.00
52693;BME280;68218;51.012;-1.648;2023-09-18T01:05:12;99257.84;;;15.63;100.00
52693;BME280;68218;51.012;-1.648;2023-09-18T01:07:39;99260.38;;;15.59;100.00
52693;BME280;68218;51.012;-1.648;2023-09-18T01:10:05;99260.72;;;15.58;100.00
52693;BME280;68218;51.012;-1.648;2023-09-18T01:12:37;99266.00;;;15.63;100.00
52693;BME280;68218;51.012;-1.648;2023-09-18T01:15:12;99276.41;;;15.78;100.00
52693;BME280;68218;51.012;-1.648;2023-09-18T01:17:40;99285.19;;;15.84;100.00
52693;BME280;68218;51.012;-1.648;2023-09-18T01:20:09;99293.81;;;15.77;100.00
52693;BME280;68218;51.012;-1.648;2023-09-18T01:22:35;99281.50;;;15.88;100.00
52693;BME280;68218;51.012;-1.648;2023-09-18T01:25:01;99287.44;;;15.90;100.00
52693;BME280;68218;51.012;-1.648;2023-09-18T01:27:27;99279.72;;;16.01;100.00
52693;BME280;68218;51.012;-1.648;2023-09-18T01:29:53;99278.91;;;16.09;100.00
52693;BME280;68218;51.012;-1.648;2023-09-18T01:32:18;99288.03;;;16.14;100.00
52693;BME280;68218;51.012;-1.648;2023-09-18T01:34:49;99285.16;;;16.10;100.00
52693;BME280;68218;51.012;-1.648;2023-09-18T01:37:17;99278.28;;;16.13;100.00
52693;BME280;68218;51.012;-1.648;2023-09-18T01:39:45;99279.38;;;16.12;100.00
52693;BME280;68218;51.012;-1.648;2023-09-18T01:42:11;99274.41;;;16.14;100.00
52693;BME280;68218;51.012;-1.648;2023-09-18T01:44:37;99273.94;;;16.20;100.00
52693;BME280;68218;51.012;-1.648;2023-09-18T01:47:04;99279.38;;;16.20;100.00
52693;BME280;68218;51.012;-1.648;2023-09-18T01:49:40;99267.69;;;16.20;100.00
52693;BME280;68218;51.012;-1.648;2023-09-18T01:52:07;99271.06;;;16.17;100.00
52693;BME280;68218;51.012;-1.648;2023-09-18T01:54:33;99274.03;;;16.33;100.00
52693;BME280;68218;51.012;-1.648;2023-09-18T01:56:59;99273.09;;;16.37;100.00
52693;BME280;68218;51.012;-1.648;2023-09-18T01:59:25;99260.56;;;16.45;100.00
52693;BME280;68218;51.012;-1.648;2023-09-18T02:01:51;99262.81;;;16.43;100.00
52693;BME280;68218;51.012;-1.648;2023-09-18T02:04:17;99267.03;;;16.32;100.00
52693;BME280;68218;51.012;-1.648;2023-09-18T02:06:44;99267.78;;;16.41;100.00
52693;BME280;68218;51.012;-1.648;2023-09-18T02:09:09;99263.16;;;16.33;100.00
52693;BME280;68218;51.012;-1.648;2023-09-18T02:11:40;99251.28;;;16.46;100.00
52693;BME280;68218;51.012;-1.648;2023-09-18T02:14:06;99253.22;;;16.45;100.00
52693;BME280;68218;51.012;-1.648;2023-09-18T02:16:33;99257.81;;;16.54;100.00
52693;BME280;68218;51.012;-1.648;2023-09-18T02:18:59;99255.28;;;16.48;100.00
52693;BME280;68218;51.012;-1.648;2023-09-18T02:21:24;99256.09;;;16.40;100.00
52693;BME280;68218;51.012;-1.648;2023-09-18T02:23:51;99246.47;;;16.43;100.00
52693;BME280;68218;51.012;-1.648;2023-09-18T02:26:20;99255.28;;;16.40;100.00
52693;BME280;68218;51.012;-1.648;2023-09-18T02:28:45;99242.78;;;16.47;100.00
52693;BME280;68218;51.012;-1.648;2023-09-18T02:31:11;99249.03;;;16.48;100.00
52693;BME280;68218;51.012;-1.648;2023-09-18T02:33:37;99235.22;;;16.53;100.00
52693;BME280;68218;51.012;-1.648;2023-09-18T02:36:03;99233.97;;;16.51;100.00
52693;BME280;68218;51.012;-1.648;2023-09-18T02:38:29;99223.41;;;16.49;100.00
52693;BME280;68218;51.012;-1.648;2023-09-18T02:40:58;99222.59;;;16.57;100.00
52693;BME280;68218;51.012;-1.648;2023-09-18T02:43:23;99226.41;;;16.56;100.00
52693;BME280;68218;51.012;-1.648;2023-09-18T02:45:49;99219.19;;;16.60;100.00
52693;BME280;68218;51.012;-1.648;2023-09-18T02:48:16;99211.56;;;16.54;100.00
52693;BME280;68218;51.012;-1.648;2023-09-18T02:50:42;99222.72;;;16.61;100.00
52693;BME280;68218;51.012;-1.648;2023-09-18T02:53:11;99218.38;;;16.60;100.00
52693;BME280;68218;51.012;-1.648;2023-09-18T02:55:36;99214.03;;;16.67;100.00
52693;BME280;68218;51.012;-1.648;2023-09-18T02:58:02;99213.59;;;16.57;100.00
52693;BME280;68218;51.012;-1.648;2023-09-18T03:00:28;99211.97;;;16.64;100.00
52693;BME280;68218;51.012;-1.648;2023-09-18T03:02:53;99202.66;;;16.65;100.00
52693;BME280;68218;51.012;-1.648;2023-09-18T03:05:19;99199.94;;;16.65;100.00
52693;BME280;68218;51.012;-1.648;2023-09-18T03:07:44;99202.47;;;16.71;100.00
52693;BME280;68218;51.012;-1.648;2023-09-18T03:10:10;99197.41;;;16.60;100.00
52693;BME280;68218;51.012;-1.648;2023-09-18T03:12:39;99194.50;;;16.65;100.00
52693;BME280;68218;51.012;-1.648;2023-09-18T03:15:05;99201.88;;;16.65;100.00
52693;BME280;68218;51.012;-1.648;2023-09-18T03:17:31;99195.50;;;16.61;100.00
52693;BME280;68218;51.012;-1.648;2023-09-18T03:19:57;99192.63;;;16.57;100.00
52693;BME280;68218;51.012;-1.648;2023-09-18T03:22:22;99195.06;;;16.50;100.00
52693;BME280;68218;51.012;-1.648;2023-09-18T03:24:47;99208.19;;;16.48;100.00
52693;BME280;68218;51.012;-1.648;2023-09-18T03:27:13;99206.13;;;16.45;100.00
52693;BME280;68218;51.012;-1.648;2023-09-18T03:29:38;99204.53;;;16.44;100.00
52693;BME280;68218;51.012;-1.648;2023-09-18T03:32:04;99193.66;;;16.44;100.00
52693;BME280;68218;51.012;-1.648;2023-09-18T03:34:29;99197.50;;;16.43;100.00
52693;BME280;68218;51.012;-1.648;2023-09-18T03:36:55;99193.66;;;16.44;100.00
52693;BME280;68218;51.012;-1.648;2023-09-18T03:39:21;99192.69;;;16.40;100.00
52693;BME280;68218;51.012;-1.648;2023-09-18T03:41:46;99191.78;;;16.36;100.00
52693;BME280;68218;51.012;-1.648;2023-09-18T03:44:12;99192.47;;;16.24;100.00
52693;BME280;68218;51.012;-1.648;2023-09-18T03:46:37;99192.13;;;16.25;100.00
52693;BME280;68218;51.012;-1.648;2023-09-18T03:49:03;99196.63;;;16.21;100.00
52693;BME280;68218;51.012;-1.648;2023-09-18T03:51:29;99195.03;;;16.20;100.00
52693;BME280;68218;51.012;-1.648;2023-09-18T03:53:55;99192.34;;;16.12;100.00
52693;BME280;68218;51.012;-1.648;2023-09-18T03:56:21;99190.88;;;16.14;100.00
52693;BME280;68218;51.012;-1.648;2023-09-18T03:58:47;99190.88;;;16.14;100.00
52693;BME280;68218;51.012;-1.648;2023-09-18T04:01:15;99188.03;;;16.10;100.00
52693;BME280;68218;51.012;-1.648;2023-09-18T04:03:41;99193.78;;;16.09;100.00
52693;BME280;68218;51.012;-1.648;2023-09-18T04:06:06;99198.09;;;16.10;100.00
52693;BME280;68218;51.012;-1.648;2023-09-18T04:08:32;99205.19;;;16.02;100.00
52693;BME280;68218;51.012;-1.648;2023-09-18T04:10:57;99214.78;;;16.00;100.00
52693;BME280;68218;51.012;-1.648;2023-09-18T04:13:23;99198.94;;;16.02;100.00
52693;BME280;68218;51.012;-1.648;2023-09-18T04:15:49;99206.78;;;15.95;100.00
52693;BME280;68218;51.012;-1.648;2023-09-18T04:18:14;99208.56;;;15.90;100.00
52693;BME280;68218;51.012;-1.648;2023-09-18T04:20:39;99193.19;;;15.95;100.00
52693;BME280;68218;51.012;-1.648;2023-09-18T04:23:37;99197.69;;;15.90;100.00
52693;BME280;68218;51.012;-1.648;2023-09-18T04:26:03;99187.44;;;15.96;100.00
52693;BME280;68218;51.012;-1.648;2023-09-18T04:28:28;99184.41;;;15.98;100.00
52693;BME280;68218;51.012;-1.648;2023-09-18T04:30:53;99185.81;;;15.95;100.00
52693;BME280;68218;51.012;-1.648;2023-09-18T04:33:19;99174.00;;;15.91;100.00
52693;BME280;68218;51.012;-1.648;2023-09-18T04:35:46;99173.53;;;15.89;100.00
52693;BME280;68218;51.012;-1.648;2023-09-18T04:38:12;99179.31;;;15.79;100.00
52693;BME280;68218;51.012;-1.648;2023-09-18T04:40:40;99175.97;;;15.73;100.00
52693;BME280;68218;51.012;-1.648;2023-09-18T04:43:05;99176.91;;;15.68;100.00
52693;BME280;68218;51.012;-1.648;2023-09-18T04:45:31;99186.81;;;15.64;100.00
52693;BME280;68218;51.012;-1.648;2023-09-18T04:47:57;99172.13;;;15.57;100.00
52693;BME280;68218;51.012;-1.648;2023-09-18T04:50:22;99171.38;;;15.47;100.00
52693;BME280;68218;51.012;-1.648;2023-09-18T04:52:48;99171.50;;;15.60;100.00
52693;BME280;68218;51.012;-1.648;2023-09-18T04:55:16;99172.94;;;15.48;100.00
52693;BME280;68218;51.012;-1.648;2023-09-18T04:57:41;99177.75;;;15.51;100.00
52693;BME280;68218;51.012;-1.648;2023-09-18T05:00:07;99174.56;;;15.49;100.00
52693;BME280;68218;51.012;-1.648;2023-09-18T05:02:34;99170.53;;;15.47;100.00
52693;BME280;68218;51.012;-1.648;2023-09-18T05:05:00;99178.06;;;15.50;100.00
52693;BME280;68218;51.012;-1.648;2023-09-18T05:07:25;99167.19;;;15.50;100.00
52693;BME280;68218;51.012;-1.648;2023-09-18T05:09:51;99170.38;;;15.52;100.00
52693;BME280;68218;51.012;-1.648;2023-09-18T05:12:16;99160.50;;;15.47;100.00
52693;BME280;68218;51.012;-1.648;2023-09-18T05:14:43;99172.94;;;15.57;100.00
52693;BME280;68218;51.012;-1.648;2023-09-18T05:17:15;99175.31;;;15.59;100.00
52693;BME280;68218;51.012;-1.648;2023-09-18T05:19:41;99168.31;;;15.58;100.00
52693;BME280;68218;51.012;-1.648;2023-09-18T05:22:08;99167.19;;;15.50;100.00
52693;BME280;68218;51.012;-1.648;2023-09-18T05:24:35;99162.53;;;15.50;100.00
52693;BME280;68218;51.012;-1.648;2023-09-18T05:27:01;99162.38;;;15.55;100.00
52693;BME280;68218;51.012;-1.648;2023-09-18T05:29:28;99158.38;;;15.62;100.00
52693;BME280;68218;51.012;-1.648;2023-09-18T05:31:53;99161.44;;;15.43;100.00
52693;BME280;68218;51.012;-1.648;2023-09-18T05:34:18;99155.88;;;15.39;100.00
52693;BME280;68218;51.012;-1.648;2023-09-18T05:36:44;99156.47;;;15.53;100.00
52693;BME280;68218;51.012;-1.648;2023-09-18T05:39:09;99147.38;;;15.41;100.00
52693;BME280;68218;51.012;-1.648;2023-09-18T05:41:38;99139.25;;;15.32;100.00
52693;BME280;68218;51.012;-1.648;2023-09-18T05:44:04;99146.44;;;15.28;100.00
52693;BME280;68218;51.012;-1.648;2023-09-18T05:46:33;99145.94;;;15.43;100.00
52693;BME280;68218;51.012;-1.648;2023-09-18T05:48:59;99143.38;;;15.38;100.00
52693;BME280;68218;51.012;-1.648;2023-09-18T05:51:25;99142.44;;;15.34;100.00
52693;BME280;68218;51.012;-1.648;2023-09-18T05:53:51;99142.75;;;15.41;100.00
52693;BME280;68218;51.012;-1.648;2023-09-18T05:56:16;99137.19;;;15.20;100.00
52693;BME280;68218;51.012;-1.648;2023-09-18T05:58:43;99129.50;;;15.31;100.00
52693;BME280;68218;51.012;-1.648;2023-09-18T06:01:08;99132.19;;;15.48;100.00
52693;BME280;68218;51.012;-1.648;2023-09-18T06:03:34;99128.03;;;15.33;100.00
52693;BME280;68218;51.012;-1.648;2023-09-18T06:06:06;99116.53;;;15.45;100.00
52693;BME280;68218;51.012;-1.648;2023-09-18T06:08:33;99125.50;;;15.28;100.00
52693;BME280;68218;51.012;-1.648;2023-09-18T06:10:59;99127.41;;;15.28;100.00
52693;BME280;68218;51.012;-1.648;2023-09-18T06:13:25;99131.72;;;15.38;100.00
52693;BME280;68218;51.012;-1.648;2023-09-18T06:15:55;99123.75;;;15.32;100.00
52693;BME280;68218;51.012;-1.648;2023-09-18T06:18:22;99116.22;;;15.29;100.00
52693;BME280;68218;51.012;-1.648;2023-09-18T06:20:48;99118.94;;;15.38;100.00
52693;BME280;68218;51.012;-1.648;2023-09-18T06:23:14;99115.59;;;15.24;100.00
52693;BME280;68218;51.012;-1.648;2023-09-18T06:25:40;99113.84;;;15.28;100.00
52693;BME280;68218;51.012;-1.648;2023-09-18T06:28:06;99112.59;;;15.16;100.00
52693;BME280;68218;51.012;-1.648;2023-09-18T06:30:32;99126.47;;;14.97;100.00
52693;BME280;68218;51.012;-1.648;2023-09-18T06:33:01;99115.63;;;15.06;100.00
52693;BME280;68218;51.012;-1.648;2023-09-18T06:35:27;99122.31;;;15.17;100.00
52693;BME280;68218;51.012;-1.648;2023-09-18T06:37:53;99123.91;;;15.36;100.00
52693;BME280;68218;51.012;-1.648;2023-09-18T06:40:23;99127.28;;;15.15;100.00
52693;BME280;68218;51.012;-1.648;2023-09-18T06:42:49;99120.72;;;15.16;100.00
52693;BME280;68218;51.012;-1.648;2023-09-18T06:45:14;99113.06;;;15.19;100.00
52693;BME280;68218;51.012;-1.648;2023-09-18T06:47:40;99108.25;;;15.24;100.00
52693;BME280;68218;51.012;-1.648;2023-09-18T06:50:06;99109.03;;;15.25;100.00
52693;BME280;68218;51.012;-1.648;2023-09-18T06:52:31;99101.38;;;15.35;100.00
52693;BME280;68218;51.012;-1.648;2023-09-18T06:54:57;99096.75;;;15.27;100.00
52693;BME280;68218;51.012;-1.648;2023-09-18T06:57:25;99091.28;;;15.45;100.00
52693;BME280;68218;51.012;-1.648;2023-09-18T06:59:51;99094.50;;;15.21;100.00
52693;BME280;68218;51.012;-1.648;2023-09-18T07:02:16;99084.75;;;15.28;100.00
52693;BME280;68218;51.012;-1.648;2023-09-18T07:04:42;99084.25;;;15.52;100.00
52693;BME280;68218;51.012;-1.648;2023-09-18T07:07:14;99082.69;;;15.34;100.00
52693;BME280;68218;51.012;-1.648;2023-09-18T07:09:41;99079.16;;;15.42;100.00
52693;BME280;68218;51.012;-1.648;2023-09-18T07:12:10;99071.44;;;15.53;100.00
52693;BME280;68218;51.012;-1.648;2023-09-18T07:14:36;99065.38;;;15.47;100.00
52693;BME280;68218;51.012;-1.648;2023-09-18T07:17:03;99064.59;;;15.38;100.00
52693;BME280;68218;51.012;-1.648;2023-09-18T07:19:29;99060.59;;;15.44;100.00
52693;BME280;68218;51.012;-1.648;2023-09-18T07:21:54;99060.34;;;15.67;100.00
52693;BME280;68218;51.012;-1.648;2023-09-18T07:24:19;99058.63;;;15.53;100.00
52693;BME280;68218;51.012;-1.648;2023-09-18T07:26:46;99057.47;;;15.72;100.00
52693;BME280;68218;51.012;-1.648;2023-09-18T07:29:16;99039.25;;;15.64;100.00
52693;BME280;68218;51.012;-1.648;2023-09-18T07:31:42;99049.78;;;15.74;100.00
52693;BME280;68218;51.012;-1.648;2023-09-18T07:34:08;99027.88;;;15.70;100.00
52693;BME280;68218;51.012;-1.648;2023-09-18T07:36:34;99033.03;;;15.63;100.00
52693;BME280;68218;51.012;-1.648;2023-09-18T07:39:00;99019.84;;;15.83;100.00
52693;BME280;68218;51.012;-1.648;2023-09-18T07:41:25;99021.50;;;15.75;100.00
52693;BME280;68218;51.012;-1.648;2023-09-18T07:43:51;99016.03;;;15.84;100.00
52693;BME280;68218;51.012;-1.648;2023-09-18T07:46:16;99013.16;;;15.80;100.00
52693;BME280;68218;51.012;-1.648;2023-09-18T07:48:42;99008.56;;;16.02;100.00
52693;BME280;68218;51.012;-1.648;2023-09-18T07:51:11;98999.50;;;16.19;100.00
52693;BME280;68218;51.012;-1.648;2023-09-18T07:53:36;99003.75;;;16.28;100.00
52693;BME280;68218;51.012;-1.648;2023-09-18T07:56:02;98993.06;;;16.23;100.00
52693;BME280;68218;51.012;-1.648;2023-09-18T07:58:30;98989.09;;;16.42;100.00
52693;BME280;68218;51.012;-1.648;2023-09-18T08:00:55;98990.00;;;16.46;100.00
52693;BME280;68218;51.012;-1.648;2023-09-18T08:03:22;98991.66;;;16.59;100.00
52693;BME280;68218;51.012;-1.648;2023-09-18T08:05:50;98988.91;;;16.47;100.00
52693;BME280;68218;51.012;-1.648;2023-09-18T08:08:18;98977.53;;;16.45;100.00
52693;BME280;68218;51.012;-1.648;2023-09-18T08:10:45;98986.94;;;16.69;100.00
52693;BME280;68218;51.012;-1.648;2023-09-18T08:13:11;98976.31;;;16.55;100.00
52693;BME280;68218;51.012;-1.648;2023-09-18T08:15:36;98975.00;;;16.61;100.00
52693;BME280;68218;51.012;-1.648;2023-09-18T08:18:03;98985.75;;;16.57;100.00
52693;BME280;68218;51.012;-1.648;2023-09-18T08:20:28;98956.63;;;16.16;100.00
52693;BME280;68218;51.012;-1.648;2023-09-18T08:22:54;98968.72;;;16.27;100.00
52693;BME280;68218;51.012;-1.648;2023-09-18T08:25:19;98968.50;;;16.32;100.00
52693;BME280;68218;51.012;-1.648;2023-09-18T08:27:45;98962.13;;;16.07;100.00
52693;BME280;68218;51.012;-1.648;2023-09-18T08:30:11;98967.31;;;16.00;100.00
52693;BME280;68218;51.012;-1.648;2023-09-18T08:32:38;98964.38;;;16.05;100.00
52693;BME280;68218;51.012;-1.648;2023-09-18T08:35:04;98961.59;;;15.93;100.00
52693;BME280;68218;51.012;-1.648;2023-09-18T08:37:30;98953.78;;;16.12;100.00
52693;BME280;68218;51.012;-1.648;2023-09-18T08:39:55;98954.69;;;15.95;100.00
52693;BME280;68218;51.012;-1.648;2023-09-18T08:42:21;98959.59;;;16.02;100.00
52693;BME280;68218;51.012;-1.648;2023-09-18T08:44:50;98955.19;;;15.97;100.00
52693;BME280;68218;51.012;-1.648;2023-09-18T08:47:17;98948.25;;;15.79;100.00
52693;BME280;68218;51.012;-1.648;2023-09-18T08:49:44;98948.06;;;16.05;100.00
52693;BME280;68218;51.012;-1.648;2023-09-18T08:52:10;98943.09;;;16.07;100.00
52693;BME280;68218;51.012;-1.648;2023-09-18T08:54:36;98941.41;;;15.94;100.00
52693;BME280;68218;51.012;-1.648;2023-09-18T08:57:02;98941.31;;;16.11;100.00
52693;BME280;68218;51.012;-1.648;2023-09-18T08:59:31;98937.19;;;16.05;100.00
52693;BME280;68218;51.012;-1.648;2023-09-18T09:01:56;98942.88;;;16.12;100.00
52693;BME280;68218;51.012;-1.648;2023-09-18T09:04:22;98938.09;;;16.09;100.00
52693;BME280;68218;51.012;-1.648;2023-09-18T09:06:48;98925.13;;;16.15;100.00
52693;BME280;68218;51.012;-1.648;2023-09-18T09:09:14;98938.41;;;16.16;100.00
52693;BME280;68218;51.012;-1.648;2023-09-18T09:11:40;98929.72;;;16.23;100.00
52693;BME280;68218;51.012;-1.648;2023-09-18T09:14:13;98930.81;;;16.22;100.00
52693;BME280;68218;51.012;-1.648;2023-09-18T09:16:47;98930.09;;;16.34;100.00
52693;BME280;68218;51.012;-1.648;2023-09-18T09:19:18;98931.06;;;16.50;100.00
52693;BME280;68218;51.012;-1.648;2023-09-18T09:21:44;98925.59;;;16.50;100.00
52693;BME280;68218;51.012;-1.648;2023-09-18T09:24:11;98933.06;;;16.41;100.00
52693;BME280;68218;51.012;-1.648;2023-09-18T09:26:40;98932.78;;;16.55;100.00
52693;BME280;68218;51.012;-1.648;2023-09-18T09:29:16;98931.38;;;16.70;100.00
52693;BME280;68218;51.012;-1.648;2023-09-18T09:31:44;98929.47;;;16.82;100.00
52693;BME280;68218;51.012;-1.648;2023-09-18T09:34:09;98934.16;;;16.94;100.00
52693;BME280;68218;51.012;-1.648;2023-09-18T09:36:35;98929.69;;;17.11;100.00
52693;BME280;68218;51.012;-1.648;2023-09-18T09:39:00;98928.09;;;17.22;100.00
52693;BME280;68218;51.012;-1.648;2023-09-18T09:41:31;98930.81;;;17.22;100.00
52693;BME280;68218;51.012;-1.648;2023-09-18T09:43:57;98937.41;;;17.46;100.00
52693;BME280;68218;51.012;-1.648;2023-09-18T09:46:23;98939.22;;;17.66;100.00
52693;BME280;68218;51.012;-1.648;2023-09-18T09:49:06;98949.47;;;17.57;100.00
52693;BME280;68218;51.012;-1.648;2023-09-18T09:51:33;98952.88;;;17.91;100.00
52693;BME280;68218;51.012;-1.648;2023-09-18T09:53:59;98947.06;;;17.68;100.00
52693;BME280;68218;51.012;-1.648;2023-09-18T09:56:41;98959.69;;;17.60;100.00
52693;BME280;68218;51.012;-1.648;2023-09-18T09:59:07;98947.19;;;17.34;100.00
52693;BME280;68218;51.012;-1.648;2023-09-18T10:01:37;98949.91;;;17.47;100.00
52693;BME280;68218;51.012;-1.648;2023-09-18T10:04:05;98946.28;;;17.55;100.00
52693;BME280;68218;51.012;-1.648;2023-09-18T10:06:34;98952.53;;;17.55;100.00
52693;BME280;68218;51.012;-1.648;2023-09-18T10:09:02;98956.50;;;17.58;100.00
52693;BME280;68218;51.012;-1.648;2023-09-18T10:11:31;98965.25;;;17.64;100.00
52693;BME280;68218;51.012;-1.648;2023-09-18T10:14:35;98972.16;;;17.49;100.00
52693;BME280;68218;51.012;-1.648;2023-09-18T10:16:56;98964.22;;;17.44;100.00
52693;BME280;68218;51.012;-1.648;2023-09-18T10:19:31;98969.00;;;17.59;100.00
52693;BME280;68218;51.012;-1.648;2023-09-18T10:24:33;98977.72;;;17.65;100.00
52693;BME280;68218;51.012;-1.648;2023-09-18T10:27:01;98983.44;;;17.84;100.00
52693;BME280;68218;51.012;-1.648;2023-09-18T10:29:31;98994.59;;;17.91;100.00
52693;BME280;68218;51.012;-1.648;2023-09-18T10:31:58;98992.72;;;17.83;100.00
52693;BME280;68218;51.012;-1.648;2023-09-18T10:34:24;98996.97;;;17.81;100.00
52693;BME280;68218;51.012;-1.648;2023-09-18T10:36:52;98998.31;;;17.74;100.00
52693;BME280;68218;51.012;-1.648;2023-09-18T10:39:18;98989.34;;;17.62;100.00
52693;BME280;68218;51.012;-1.648;2023-09-18T10:41:48;98996.03;;;17.52;100.00
52693;BME280;68218;51.012;-1.648;2023-09-18T10:44:14;99015.91;;;17.65;100.00
52693;BME280;68218;51.012;-1.648;2023-09-18T10:46:42;99020.34;;;17.45;100.00
52693;BME280;68218;51.012;-1.648;2023-09-18T10:49:07;99026.34;;;17.38;100.00
52693;BME280;68218;51.012;-1.648;2023-09-18T10:51:33;99031.88;;;17.29;100.00
52693;BME280;68218;51.012;-1.648;2023-09-18T10:54:03;99036.91;;;17.39;100.00
52693;BME280;68218;51.012;-1.648;2023-09-18T10:56:28;99036.63;;;17.32;100.00
52693;BME280;68218;51.012;-1.648;2023-09-18T10:59:06;99026.56;;;17.45;100.00
52693;BME280;68218;51.012;-1.648;2023-09-18T11:01:33;99036.81;;;17.60;100.00
52693;BME280;68218;51.012;-1.648;2023-09-18T11:04:05;99045.91;;;17.65;100.00
52693;BME280;68218;51.012;-1.648;2023-09-18T11:09:22;99068.41;;;17.62;100.00
52693;BME280;68218;51.012;-1.648;2023-09-18T11:12:02;99069.59;;;18.10;100.00
52693;BME280;68218;51.012;-1.648;2023-09-18T11:14:47;99076.06;;;18.05;100.00
52693;BME280;68218;51.012;-1.648;2023-09-18T11:17:34;99067.03;;;17.68;100.00
52693;BME280;68218;51.012;-1.648;2023-09-18T11:28:01;99076.03;;;17.01;100.00
52693;BME280;68218;51.012;-1.648;2023-09-18T11:30:28;99116.53;;;17.45;100.00
52693;BME280;68218;51.012;-1.648;2023-09-18T11:32:54;99123.94;;;17.57;100.00
52693;BME280;68218;51.012;-1.648;2023-09-18T11:35:21;99103.03;;;17.49;100.00
52693;BME280;68218;51.012;-1.648;2023-09-18T11:37:47;99135.44;;;17.96;100.00
52693;BME280;68218;51.012;-1.648;2023-09-18T11:40:31;99147.53;;;17.53;98.13
52693;BME280;68218;51.012;-1.648;2023-09-18T11:43:22;99167.44;;;17.53;100.00
52693;BME280;68218;51.012;-1.648;2023-09-18T11:45:52;99149.81;;;17.17;100.00
52693;BME280;68218;51.012;-1.648;2023-09-18T11:48:20;99165.22;;;17.13;95.92
52693;BME280;68218;51.012;-1.648;2023-09-18T11:50:46;99167.78;;;17.52;100.00
52693;BME280;68218;51.012;-1.648;2023-09-18T11:53:14;99171.34;;;18.10;100.00
52693;BME280;68218;51.012;-1.648;2023-09-18T11:55:40;99168.88;;;18.42;93.04
52693;BME280;68218;51.012;-1.648;2023-09-18T11:58:06;99181.72;;;18.79;91.47
52693;BME280;68218;51.012;-1.648;2023-09-18T12:00:34;99190.16;;;18.86;91.19
52693;BME280;68218;51.012;-1.648;2023-09-18T12:03:13;99190.69;;;18.79;89.17
52693;BME280;68218;51.012;-1.648;2023-09-18T12:05:40;99192.75;;;18.70;90.32
52693;BME280;68218;51.012;-1.648;2023-09-18T12:08:06;99204.72;;;18.41;87.46
52693;BME280;68218;51.012;-1.648;2023-09-18T12:10:31;99216.63;;;18.24;87.09
52693;BME280;68218;51.012;-1.648;2023-09-18T12:12:57;99218.50;;;17.65;87.48
52693;BME280;68218;51.012;-1.648;2023-09-18T12:15:23;99215.13;;;17.47;81.71
52693;BME280;68218;51.012;-1.648;2023-09-18T12:17:54;99234.84;;;17.65;81.79
52693;BME280;68218;51.012;-1.648;2023-09-18T12:20:20;99223.53;;;17.75;88.55
52693;BME280;68218;51.012;-1.648;2023-09-18T12:22:49;99239.91;;;17.75;84.83
52693;BME280;68218;51.012;-1.648;2023-09-18T12:25:18;99244.28;;;17.89;91.35
52693;BME280;68218;51.012;-1.648;2023-09-18T12:27:44;99243.16;;;17.90;88.88
52693;BME280;68218;51.012;-1.648;2023-09-18T12:30:11;99259.34;;;18.07;83.65
52693;BME280;68218;51.012;-1.648;2023-09-18T12:32:37;99250.09;;;17.87;81.02
52693;BME280;68218;51.012;-1.648;2023-09-18T12:35:05;99253.59;;;17.88;82.20
52693;BME280;68218;51.012;-1.648;2023-09-18T12:37:33;99275.22;;;17.72;83.10
52693;BME280;68218;51.012;-1.648;2023-09-18T12:39:59;99268.63;;;17.94;91.87
52693;BME280;68218;51.012;-1.648;2023-09-18T12:42:24;99285.47;;;17.96;82.31
52693;BME280;68218;51.012;-1.648;2023-09-18T12:44:52;99277.91;;;18.26;83.89
52693;BME280;68218;51.012;-1.648;2023-09-18T12:47:18;99279.44;;;18.36;82.85
52693;BME280;68218;51.012;-1.648;2023-09-18T12:49:43;99287.34;;;18.17;81.59
52693;BME280;68218;51.012;-1.648;2023-09-18T12:52:09;99292.25;;;17.90;87.06
52693;BME280;68218;51.012;-1.648;2023-09-18T12:54:45;99298.03;;;17.88;83.01